sensor_id;sensor_type;location;lat;lon;timestamp;temperature;humidity
26745;DHT22;14342;50.960;13.880;2022-07-30T00:00:44;22.90;72.00
26745;DHT22;14342;50.960;13.880;2022-07-30T00:01:44;22.90;72.00
26745;DHT22;14342;50.960;13.880;2022-07-30T00:02:47;22.90;72.90
26745;DHT22;14342;50.960;13.880;2022-07-30T00:03:49;22.90;75.60
26745;DHT22;14342;50.960;13.880;2022-07-30T00:04:51;22.80;77.40
26745;DHT22;14342;50.960;13.880;2022-07-30T00:05:52;22.60;80.70
26745;DHT22;14342;50.960;13.880;2022-07-30T00:06:54;22.40;82.90
26745;DHT22;14342;50.960;13.880;2022-07-30T00:07:55;22.20;87.20
26745;DHT22;14342;50.960;13.880;2022-07-30T00:08:56;22.40;90.40
26745;DHT22;14342;50.960;13.880;2022-07-30T00:09:58;22.30;91.80
26745;DHT22;14342;50.960;13.880;2022-07-30T00:10:59;22.40;94.10
26745;DHT22;14342;50.960;13.880;2022-07-30T00:12:00;22.30;96.00
26745;DHT22;14342;50.960;13.880;2022-07-30T00:13:02;22.30;97.40
26745;DHT22;14342;50.960;13.880;2022-07-30T00:14:02;22.30;99.80
26745;DHT22;14342;50.960;13.880;2022-07-30T00:15:04;22.20;99.90
26745;DHT22;14342;50.960;13.880;2022-07-30T00:16:05;22.20;99.90
26745;DHT22;14342;50.960;13.880;2022-07-30T00:17:07;22.20;99.90
26745;DHT22;14342;50.960;13.880;2022-07-30T00:18:10;22.20;99.90
26745;DHT22;14342;50.960;13.880;2022-07-30T00:19:11;22.20;99.90
26745;DHT22;14342;50.960;13.880;2022-07-30T00:20:12;22.20;99.90
26745;DHT22;14342;50.960;13.880;2022-07-30T00:21:14;22.10;99.90
26745;DHT22;14342;50.960;13.880;2022-07-30T00:22:14;22.20;99.90
26745;DHT22;14342;50.960;13.880;2022-07-30T00:23:16;22.20;99.90
26745;DHT22;14342;50.960;13.880;2022-07-30T00:24:16;22.30;99.90
26745;DHT22;14342;50.960;13.880;2022-07-30T00:25:18;22.00;99.90
26745;DHT22;14342;50.960;13.880;2022-07-30T00:26:19;21.70;99.90
26745;DHT22;14342;50.960;13.880;2022-07-30T00:27:20;21.70;99.90
26745;DHT22;14342;50.960;13.880;2022-07-30T00:28:21;21.80;99.90
26745;DHT22;14342;50.960;13.880;2022-07-30T00:29:22;21.80;99.90
26745;DHT22;14342;50.960;13.880;2022-07-30T00:30:23;21.90;99.90
26745;DHT22;14342;50.960;13.880;2022-07-30T00:31:24;21.80;99.90
26745;DHT22;14342;50.960;13.880;2022-07-30T00:32:25;21.70;99.90
26745;DHT22;14342;50.960;13.880;2022-07-30T00:33:28;21.80;99.90
26745;DHT22;14342;50.960;13.880;2022-07-30T00:34:28;21.90;99.90
26745;DHT22;14342;50.960;13.880;2022-07-30T00:35:30;21.80;99.90
26745;DHT22;14342;50.960;13.880;2022-07-30T00:36:30;21.70;99.90
26745;DHT22;14342;50.960;13.880;2022-07-30T00:37:32;21.90;99.90
26745;DHT22;14342;50.960;13.880;2022-07-30T00:38:33;21.80;99.90
26745;DHT22;14342;50.960;13.880;2022-07-30T00:39:34;21.80;99.90
26745;DHT22;14342;50.960;13.880;2022-07-30T00:40:35;21.80;99.90
26745;DHT22;14342;50.960;13.880;2022-07-30T00:41:51;21.80;99.90
26745;DHT22;14342;50.960;13.880;2022-07-30T00:42:51;21.90;99.90
26745;DHT22;14342;50.960;13.880;2022-07-30T00:43:53;21.90;99.90
26745;DHT22;14342;50.960;13.880;2022-07-30T00:44:53;21.80;99.90
26745;DHT22;14342;50.960;13.880;2022-07-30T00:45:55;21.60;99.90
26745;DHT22;14342;50.960;13.880;2022-07-30T00:46:56;21.50;99.90
26745;DHT22;14342;50.960;13.880;2022-07-30T00:47:57;21.40;99.90
26745;DHT22;14342;50.960;13.880;2022-07-30T00:49:02;21.40;99.90
26745;DHT22;14342;50.960;13.880;2022-07-30T00:50:04;21.50;99.90
26745;DHT22;14342;50.960;13.880;2022-07-30T00:51:05;21.60;99.90
26745;DHT22;14342;50.960;13.880;2022-07-30T00:52:06;21.60;99.90
26745;DHT22;14342;50.960;13.880;2022-07-30T00:53:07;21.70;99.90
26745;DHT22;14342;50.960;13.880;2022-07-30T00:54:09;21.70;99.90
26745;DHT22;14342;50.960;13.880;2022-07-30T00:55:10;21.90;99.90
26745;DHT22;14342;50.960;13.880;2022-07-30T00:56:12;22.00;99.90
26745;DHT22;14342;50.960;13.880;2022-07-30T00:57:13;21.60;99.90
26745;DHT22;14342;50.960;13.880;2022-07-30T00:58:14;21.80;99.90
26745;DHT22;14342;50.960;13.880;2022-07-30T00:59:15;21.60;99.90
26745;DHT22;14342;50.960;13.880;2022-07-30T01:00:16;21.60;99.90
26745;DHT22;14342;50.960;13.880;2022-07-30T01:01:17;21.60;99.90
26745;DHT22;14342;50.960;13.880;2022-07-30T01:02:20;21.40;99.90
26745;DHT22;14342;50.960;13.880;2022-07-30T01:03:21;21.20;99.90
26745;DHT22;14342;50.960;13.880;2022-07-30T01:04:23;21.50;99.90
26745;DHT22;14342;50.960;13.880;2022-07-30T01:05:24;21.60;99.90
26745;DHT22;14342;50.960;13.880;2022-07-30T01:06:26;21.60;99.90
26745;DHT22;14342;50.960;13.880;2022-07-30T01:07:26;21.80;99.90
26745;DHT22;14342;50.960;13.880;2022-07-30T01:08:28;21.80;99.90
26745;DHT22;14342;50.960;13.880;2022-07-30T01:09:29;21.90;99.90
26745;DHT22;14342;50.960;13.880;2022-07-30T01:10:30;21.80;99.90
26745;DHT22;14342;50.960;13.880;2022-07-30T01:11:33;21.80;99.90
26745;DHT22;14342;50.960;13.880;2022-07-30T01:12:35;21.70;99.90
26745;DHT22;14342;50.960;13.880;2022-07-30T01:13:36;21.70;99.90
26745;DHT22;14342;50.960;13.880;2022-07-30T01:14:38;21.70;99.90
26745;DHT22;14342;50.960;13.880;2022-07-30T01:15:39;21.50;99.90
26745;DHT22;14342;50.960;13.880;2022-07-30T01:16:42;21.50;99.90
26745;DHT22;14342;50.960;13.880;2022-07-30T01:17:43;21.30;99.90
26745;DHT22;14342;50.960;13.880;2022-07-30T01:18:46;21.10;99.90
26745;DHT22;14342;50.960;13.880;2022-07-30T01:20:10;21.10;99.90
26745;DHT22;14342;50.960;13.880;2022-07-30T01:21:13;20.90;99.90
26745;DHT22;14342;50.960;13.880;2022-07-30T01:22:16;20.70;99.90
26745;DHT22;14342;50.960;13.880;2022-07-30T01:23:20;20.70;99.90
26745;DHT22;14342;50.960;13.880;2022-07-30T01:24:24;20.60;99.90
26745;DHT22;14342;50.960;13.880;2022-07-30T01:26:31;20.50;99.90
26745;DHT22;14342;50.960;13.880;2022-07-30T01:27:32;20.60;99.90
26745;DHT22;14342;50.960;13.880;2022-07-30T01:28:36;20.50;99.90
26745;DHT22;14342;50.960;13.880;2022-07-30T01:29:37;20.40;99.90
26745;DHT22;14342;50.960;13.880;2022-07-30T01:30:39;20.40;99.90
26745;DHT22;14342;50.960;13.880;2022-07-30T01:31:41;20.40;99.90
26745;DHT22;14342;50.960;13.880;2022-07-30T01:32:43;20.40;99.90
26745;DHT22;14342;50.960;13.880;2022-07-30T01:33:46;20.30;99.90
26745;DHT22;14342;50.960;13.880;2022-07-30T01:34:48;20.30;99.90
26745;DHT22;14342;50.960;13.880;2022-07-30T01:35:50;20.30;99.90
26745;DHT22;14342;50.960;13.880;2022-07-30T01:36:51;20.30;99.90
26745;DHT22;14342;50.960;13.880;2022-07-30T01:37:53;20.40;99.90
26745;DHT22;14342;50.960;13.880;2022-07-30T01:38:54;20.40;99.90
26745;DHT22;14342;50.960;13.880;2022-07-30T01:39:57;20.30;99.90
26745;DHT22;14342;50.960;13.880;2022-07-30T01:40:58;20.30;99.90
26745;DHT22;14342;50.960;13.880;2022-07-30T01:42:01;20.30;99.90
26745;DHT22;14342;50.960;13.880;2022-07-30T01:43:05;20.20;99.90
26745;DHT22;14342;50.960;13.880;2022-07-30T01:44:07;20.10;99.90
26745;DHT22;14342;50.960;13.880;2022-07-30T01:45:10;20.20;99.90
26745;DHT22;14342;50.960;13.880;2022-07-30T01:46:11;20.10;99.90
26745;DHT22;14342;50.960;13.880;2022-07-30T01:47:13;20.20;99.90
26745;DHT22;14342;50.960;13.880;2022-07-30T01:48:17;20.10;99.90
26745;DHT22;14342;50.960;13.880;2022-07-30T01:49:19;20.10;99.90
26745;DHT22;14342;50.960;13.880;2022-07-30T01:50:21;20.10;99.90
26745;DHT22;14342;50.960;13.880;2022-07-30T01:51:22;20.10;99.90
26745;DHT22;14342;50.960;13.880;2022-07-30T01:52:24;20.20;99.90
26745;DHT22;14342;50.960;13.880;2022-07-30T01:53:26;20.30;99.90
26745;DHT22;14342;50.960;13.880;2022-07-30T01:54:30;20.30;99.90
26745;DHT22;14342;50.960;13.880;2022-07-30T01:55:32;20.20;99.90
26745;DHT22;14342;50.960;13.880;2022-07-30T01:56:34;20.20;99.90
26745;DHT22;14342;50.960;13.880;2022-07-30T01:57:37;20.20;99.90
26745;DHT22;14342;50.960;13.880;2022-07-30T01:58:40;20.10;99.90
26745;DHT22;14342;50.960;13.880;2022-07-30T01:59:41;20.10;99.90
26745;DHT22;14342;50.960;13.880;2022-07-30T02:00:44;20.00;99.90
26745;DHT22;14342;50.960;13.880;2022-07-30T02:01:45;20.00;99.90
26745;DHT22;14342;50.960;13.880;2022-07-30T02:02:47;19.90;99.90
26745;DHT22;14342;50.960;13.880;2022-07-30T02:03:48;19.80;99.90
26745;DHT22;14342;50.960;13.880;2022-07-30T02:04:49;19.80;99.90
26745;DHT22;14342;50.960;13.880;2022-07-30T02:05:52;19.70;99.90
26745;DHT22;14342;50.960;13.880;2022-07-30T02:06:58;19.70;99.90
26745;DHT22;14342;50.960;13.880;2022-07-30T02:08:00;19.60;99.90
26745;DHT22;14342;50.960;13.880;2022-07-30T02:09:03;19.60;99.90
26745;DHT22;14342;50.960;13.880;2022-07-30T02:10:06;19.60;99.90
26745;DHT22;14342;50.960;13.880;2022-07-30T02:11:10;19.70;99.90
26745;DHT22;14342;50.960;13.880;2022-07-30T02:12:12;19.80;99.90
26745;DHT22;14342;50.960;13.880;2022-07-30T02:13:30;19.70;99.90
26745;DHT22;14342;50.960;13.880;2022-07-30T02:14:34;19.80;99.90
26745;DHT22;14342;50.960;13.880;2022-07-30T02:15:37;19.80;99.90
26745;DHT22;14342;50.960;13.880;2022-07-30T02:16:41;19.80;99.90
26745;DHT22;14342;50.960;13.880;2022-07-30T02:17:44;19.90;99.90
26745;DHT22;14342;50.960;13.880;2022-07-30T02:18:50;19.90;99.90
26745;DHT22;14342;50.960;13.880;2022-07-30T02:19:56;19.80;99.90
26745;DHT22;14342;50.960;13.880;2022-07-30T02:21:00;19.70;99.90
26745;DHT22;14342;50.960;13.880;2022-07-30T02:22:02;19.70;99.90
26745;DHT22;14342;50.960;13.880;2022-07-30T02:23:05;19.90;99.90
26745;DHT22;14342;50.960;13.880;2022-07-30T02:24:07;19.70;99.90
26745;DHT22;14342;50.960;13.880;2022-07-30T02:25:12;19.70;99.90
26745;DHT22;14342;50.960;13.880;2022-07-30T02:26:13;19.70;99.90
26745;DHT22;14342;50.960;13.880;2022-07-30T02:27:19;19.70;99.90
26745;DHT22;14342;50.960;13.880;2022-07-30T02:28:21;19.80;99.90
26745;DHT22;14342;50.960;13.880;2022-07-30T02:29:25;19.90;99.90
26745;DHT22;14342;50.960;13.880;2022-07-30T02:30:29;20.10;99.90
26745;DHT22;14342;50.960;13.880;2022-07-30T02:31:31;20.20;99.90
26745;DHT22;14342;50.960;13.880;2022-07-30T02:32:34;20.30;99.90
26745;DHT22;14342;50.960;13.880;2022-07-30T02:33:37;20.40;99.90
26745;DHT22;14342;50.960;13.880;2022-07-30T02:34:40;20.40;99.90
26745;DHT22;14342;50.960;13.880;2022-07-30T02:35:42;20.40;99.90
26745;DHT22;14342;50.960;13.880;2022-07-30T02:36:43;20.50;99.90
26745;DHT22;14342;50.960;13.880;2022-07-30T02:37:46;20.60;99.90
26745;DHT22;14342;50.960;13.880;2022-07-30T02:38:47;20.60;99.90
26745;DHT22;14342;50.960;13.880;2022-07-30T02:39:50;20.50;99.90
26745;DHT22;14342;50.960;13.880;2022-07-30T02:40:51;20.60;99.90
26745;DHT22;14342;50.960;13.880;2022-07-30T02:41:53;20.60;99.90
26745;DHT22;14342;50.960;13.880;2022-07-30T02:42:55;20.60;99.90
26745;DHT22;14342;50.960;13.880;2022-07-30T02:43:58;20.60;99.90
26745;DHT22;14342;50.960;13.880;2022-07-30T02:45:00;20.50;99.90
26745;DHT22;14342;50.960;13.880;2022-07-30T02:46:02;20.60;99.90
26745;DHT22;14342;50.960;13.880;2022-07-30T02:47:03;20.60;99.90
26745;DHT22;14342;50.960;13.880;2022-07-30T02:48:07;20.80;99.90
26745;DHT22;14342;50.960;13.880;2022-07-30T02:49:08;20.70;99.90
26745;DHT22;14342;50.960;13.880;2022-07-30T02:50:11;20.70;99.90
26745;DHT22;14342;50.960;13.880;2022-07-30T02:51:12;20.70;99.90
26745;DHT22;14342;50.960;13.880;2022-07-30T02:52:15;20.60;99.90
26745;DHT22;14342;50.960;13.880;2022-07-30T02:53:17;20.60;99.90
26745;DHT22;14342;50.960;13.880;2022-07-30T02:54:19;20.70;99.90
26745;DHT22;14342;50.960;13.880;2022-07-30T02:55:20;20.70;99.90
26745;DHT22;14342;50.960;13.880;2022-07-30T02:56:22;20.70;99.90
26745;DHT22;14342;50.960;13.880;2022-07-30T02:57:24;20.90;99.90
26745;DHT22;14342;50.960;13.880;2022-07-30T02:58:26;21.00;99.90
26745;DHT22;14342;50.960;13.880;2022-07-30T02:59:26;21.10;99.90
26745;DHT22;14342;50.960;13.880;2022-07-30T03:00:30;21.20;99.90
26745;DHT22;14342;50.960;13.880;2022-07-30T03:01:31;21.20;99.90
26745;DHT22;14342;50.960;13.880;2022-07-30T03:02:33;21.30;99.90
26745;DHT22;14342;50.960;13.880;2022-07-30T03:03:34;21.40;99.90
26745;DHT22;14342;50.960;13.880;2022-07-30T03:04:36;21.40;99.90
26745;DHT22;14342;50.960;13.880;2022-07-30T03:05:38;21.40;99.90
26745;DHT22;14342;50.960;13.880;2022-07-30T03:06:40;21.40;99.90
26745;DHT22;14342;50.960;13.880;2022-07-30T03:07:41;21.40;99.90
26745;DHT22;14342;50.960;13.880;2022-07-30T03:08:43;21.30;99.90
26745;DHT22;14342;50.960;13.880;2022-07-30T03:09:44;21.40;99.90
26745;DHT22;14342;50.960;13.880;2022-07-30T03:10:46;21.50;99.90
26745;DHT22;14342;50.960;13.880;2022-07-30T03:11:48;21.50;99.90
26745;DHT22;14342;50.960;13.880;2022-07-30T03:12:51;21.50;99.90
26745;DHT22;14342;50.960;13.880;2022-07-30T03:13:54;21.40;99.90
26745;DHT22;14342;50.960;13.880;2022-07-30T03:14:54;21.40;99.90
26745;DHT22;14342;50.960;13.880;2022-07-30T03:15:58;21.40;99.90
26745;DHT22;14342;50.960;13.880;2022-07-30T03:17:00;21.50;99.90
26745;DHT22;14342;50.960;13.880;2022-07-30T03:18:03;21.50;99.90
26745;DHT22;14342;50.960;13.880;2022-07-30T03:19:05;21.60;99.90
26745;DHT22;14342;50.960;13.880;2022-07-30T03:20:07;21.70;99.90
26745;DHT22;14342;50.960;13.880;2022-07-30T03:21:09;21.70;99.90
26745;DHT22;14342;50.960;13.880;2022-07-30T03:22:11;21.80;99.90
26745;DHT22;14342;50.960;13.880;2022-07-30T03:23:13;21.80;99.90
26745;DHT22;14342;50.960;13.880;2022-07-30T03:24:15;21.70;99.90
26745;DHT22;14342;50.960;13.880;2022-07-30T03:25:19;21.80;99.90
26745;DHT22;14342;50.960;13.880;2022-07-30T03:26:21;21.80;99.90
26745;DHT22;14342;50.960;13.880;2022-07-30T03:27:24;21.70;99.90
26745;DHT22;14342;50.960;13.880;2022-07-30T03:28:25;21.70;99.90
26745;DHT22;14342;50.960;13.880;2022-07-30T03:29:28;21.60;99.90
26745;DHT22;14342;50.960;13.880;2022-07-30T03:30:30;21.60;99.90
26745;DHT22;14342;50.960;13.880;2022-07-30T03:31:35;21.60;99.90
26745;DHT22;14342;50.960;13.880;2022-07-30T03:32:35;21.60;99.90
26745;DHT22;14342;50.960;13.880;2022-07-30T03:33:37;21.50;99.90
26745;DHT22;14342;50.960;13.880;2022-07-30T03:34:39;21.50;99.90
26745;DHT22;14342;50.960;13.880;2022-07-30T03:35:42;21.50;99.90
26745;DHT22;14342;50.960;13.880;2022-07-30T03:36:42;21.50;99.90
26745;DHT22;14342;50.960;13.880;2022-07-30T03:37:44;21.40;99.90
26745;DHT22;14342;50.960;13.880;2022-07-30T03:38:45;21.40;99.90
26745;DHT22;14342;50.960;13.880;2022-07-30T03:39:47;21.30;99.90
26745;DHT22;14342;50.960;13.880;2022-07-30T03:40:48;21.30;99.90
26745;DHT22;14342;50.960;13.880;2022-07-30T03:41:50;21.20;99.90
26745;DHT22;14342;50.960;13.880;2022-07-30T03:42:51;21.20;99.90
26745;DHT22;14342;50.960;13.880;2022-07-30T03:43:52;21.20;99.90
26745;DHT22;14342;50.960;13.880;2022-07-30T03:44:54;21.10;99.90
26745;DHT22;14342;50.960;13.880;2022-07-30T03:45:56;21.10;99.90
26745;DHT22;14342;50.960;13.880;2022-07-30T03:46:59;21.00;99.90
26745;DHT22;14342;50.960;13.880;2022-07-30T03:48:01;20.90;99.90
26745;DHT22;14342;50.960;13.880;2022-07-30T03:49:02;20.80;99.90
26745;DHT22;14342;50.960;13.880;2022-07-30T03:50:05;20.80;99.90
26745;DHT22;14342;50.960;13.880;2022-07-30T03:51:06;20.80;99.90
26745;DHT22;14342;50.960;13.880;2022-07-30T03:52:09;20.90;99.90
26745;DHT22;14342;50.960;13.880;2022-07-30T03:53:10;20.90;99.90
26745;DHT22;14342;50.960;13.880;2022-07-30T03:54:12;20.90;99.90
26745;DHT22;14342;50.960;13.880;2022-07-30T03:55:12;20.90;99.90
26745;DHT22;14342;50.960;13.880;2022-07-30T03:56:15;20.90;99.90
26745;DHT22;14342;50.960;13.880;2022-07-30T03:57:15;21.00;99.90
26745;DHT22;14342;50.960;13.880;2022-07-30T03:58:17;21.00;99.90
26745;DHT22;14342;50.960;13.880;2022-07-30T03:59:18;21.10;99.90
26745;DHT22;14342;50.960;13.880;2022-07-30T04:00:19;21.10;99.90
26745;DHT22;14342;50.960;13.880;2022-07-30T04:01:23;21.10;99.90
26745;DHT22;14342;50.960;13.880;2022-07-30T04:02:25;21.20;99.90
26745;DHT22;14342;50.960;13.880;2022-07-30T04:03:28;21.20;99.90
26745;DHT22;14342;50.960;13.880;2022-07-30T04:04:29;21.20;99.90
26745;DHT22;14342;50.960;13.880;2022-07-30T04:05:31;20.80;99.90
26745;DHT22;14342;50.960;13.880;2022-07-30T04:06:31;20.70;99.90
26745;DHT22;14342;50.960;13.880;2022-07-30T04:07:35;20.70;99.90
26745;DHT22;14342;50.960;13.880;2022-07-30T04:08:36;20.60;99.90
26745;DHT22;14342;50.960;13.880;2022-07-30T04:09:37;20.50;99.90
26745;DHT22;14342;50.960;13.880;2022-07-30T04:10:39;20.40;99.90
26745;DHT22;14342;50.960;13.880;2022-07-30T04:11:39;20.40;99.90
26745;DHT22;14342;50.960;13.880;2022-07-30T04:12:41;20.40;99.90
26745;DHT22;14342;50.960;13.880;2022-07-30T04:13:42;20.10;99.90
26745;DHT22;14342;50.960;13.880;2022-07-30T04:14:44;20.30;99.90
26745;DHT22;14342;50.960;13.880;2022-07-30T04:15:46;20.50;99.90
26745;DHT22;14342;50.960;13.880;2022-07-30T04:16:49;20.50;99.90
26745;DHT22;14342;50.960;13.880;2022-07-30T04:17:53;20.40;99.90
26745;DHT22;14342;50.960;13.880;2022-07-30T04:18:56;20.50;99.90
26745;DHT22;14342;50.960;13.880;2022-07-30T04:19:59;20.60;99.90
26745;DHT22;14342;50.960;13.880;2022-07-30T04:21:01;20.60;99.90
26745;DHT22;14342;50.960;13.880;2022-07-30T04:22:03;20.40;99.90
26745;DHT22;14342;50.960;13.880;2022-07-30T04:23:05;20.20;99.90
26745;DHT22;14342;50.960;13.880;2022-07-30T04:24:06;20.20;99.90
26745;DHT22;14342;50.960;13.880;2022-07-30T04:25:09;20.20;99.90
26745;DHT22;14342;50.960;13.880;2022-07-30T04:26:10;20.10;99.90
26745;DHT22;14342;50.960;13.880;2022-07-30T04:27:15;20.10;99.90
26745;DHT22;14342;50.960;13.880;2022-07-30T04:28:16;20.10;99.90
26745;DHT22;14342;50.960;13.880;2022-07-30T04:29:19;20.00;99.90
26745;DHT22;14342;50.960;13.880;2022-07-30T04:30:20;19.80;99.90
26745;DHT22;14342;50.960;13.880;2022-07-30T04:31:22;19.70;99.90
26745;DHT22;14342;50.960;13.880;2022-07-30T04:32:23;19.60;99.90
26745;DHT22;14342;50.960;13.880;2022-07-30T04:33:26;19.70;99.90
26745;DHT22;14342;50.960;13.880;2022-07-30T04:34:27;19.60;99.90
26745;DHT22;14342;50.960;13.880;2022-07-30T04:35:29;19.50;99.90
26745;DHT22;14342;50.960;13.880;2022-07-30T04:36:30;19.60;99.90
26745;DHT22;14342;50.960;13.880;2022-07-30T04:37:32;19.70;99.90
26745;DHT22;14342;50.960;13.880;2022-07-30T04:38:33;19.70;99.90
26745;DHT22;14342;50.960;13.880;2022-07-30T04:39:34;19.70;99.90
26745;DHT22;14342;50.960;13.880;2022-07-30T04:40:35;19.80;99.90
26745;DHT22;14342;50.960;13.880;2022-07-30T04:41:37;19.80;99.90
26745;DHT22;14342;50.960;13.880;2022-07-30T04:42:37;19.90;99.90
26745;DHT22;14342;50.960;13.880;2022-07-30T04:43:40;20.00;99.90
26745;DHT22;14342;50.960;13.880;2022-07-30T04:44:40;20.10;99.90
26745;DHT22;14342;50.960;13.880;2022-07-30T04:45:42;20.20;99.90
26745;DHT22;14342;50.960;13.880;2022-07-30T04:46:43;20.30;99.90
26745;DHT22;14342;50.960;13.880;2022-07-30T04:47:44;20.30;99.90
26745;DHT22;14342;50.960;13.880;2022-07-30T04:48:46;20.30;99.90
26745;DHT22;14342;50.960;13.880;2022-07-30T04:49:48;20.40;99.90
26745;DHT22;14342;50.960;13.880;2022-07-30T04:50:49;20.40;99.90
26745;DHT22;14342;50.960;13.880;2022-07-30T04:51:51;20.50;99.90
26745;DHT22;14342;50.960;13.880;2022-07-30T04:52:53;20.60;99.90
26745;DHT22;14342;50.960;13.880;2022-07-30T04:53:55;20.60;99.90
26745;DHT22;14342;50.960;13.880;2022-07-30T04:54:57;20.60;99.90
26745;DHT22;14342;50.960;13.880;2022-07-30T04:56:00;20.70;99.90
26745;DHT22;14342;50.960;13.880;2022-07-30T04:57:01;20.80;99.90
26745;DHT22;14342;50.960;13.880;2022-07-30T04:58:04;20.80;99.90
26745;DHT22;14342;50.960;13.880;2022-07-30T04:59:05;20.80;99.90
26745;DHT22;14342;50.960;13.880;2022-07-30T05:00:07;20.80;99.90
26745;DHT22;14342;50.960;13.880;2022-07-30T05:01:08;20.80;99.90
26745;DHT22;14342;50.960;13.880;2022-07-30T05:02:10;20.80;99.90
26745;DHT22;14342;50.960;13.880;2022-07-30T05:03:11;20.80;99.90
26745;DHT22;14342;50.960;13.880;2022-07-30T05:04:15;20.80;99.90
26745;DHT22;14342;50.960;13.880;2022-07-30T05:05:16;20.80;99.90
26745;DHT22;14342;50.960;13.880;2022-07-30T05:06:19;20.70;99.90
26745;DHT22;14342;50.960;13.880;2022-07-30T05:07:20;20.60;99.90
26745;DHT22;14342;50.960;13.880;2022-07-30T05:08:22;20.60;99.90
26745;DHT22;14342;50.960;13.880;2022-07-30T05:09:23;20.40;99.90
26745;DHT22;14342;50.960;13.880;2022-07-30T05:10:25;20.30;99.90
26745;DHT22;14342;50.960;13.880;2022-07-30T05:11:25;20.20;99.90
26745;DHT22;14342;50.960;13.880;2022-07-30T05:12:31;20.00;99.90
26745;DHT22;14342;50.960;13.880;2022-07-30T05:13:31;19.90;99.90
26745;DHT22;14342;50.960;13.880;2022-07-30T05:14:33;19.80;99.90
26745;DHT22;14342;50.960;13.880;2022-07-30T05:15:33;19.80;99.90
26745;DHT22;14342;50.960;13.880;2022-07-30T05:16:35;19.70;99.90
26745;DHT22;14342;50.960;13.880;2022-07-30T05:17:36;19.70;99.90
26745;DHT22;14342;50.960;13.880;2022-07-30T05:18:37;19.60;99.90
26745;DHT22;14342;50.960;13.880;2022-07-30T05:19:39;19.70;99.90
26745;DHT22;14342;50.960;13.880;2022-07-30T05:20:41;19.70;99.90
26745;DHT22;14342;50.960;13.880;2022-07-30T05:21:42;19.70;99.90
26745;DHT22;14342;50.960;13.880;2022-07-30T05:22:43;19.70;99.90
26745;DHT22;14342;50.960;13.880;2022-07-30T05:23:44;19.70;99.90
26745;DHT22;14342;50.960;13.880;2022-07-30T05:24:45;19.70;99.90
26745;DHT22;14342;50.960;13.880;2022-07-30T05:25:46;19.70;99.90
26745;DHT22;14342;50.960;13.880;2022-07-30T05:26:47;19.70;99.90
26745;DHT22;14342;50.960;13.880;2022-07-30T05:27:48;19.70;99.90
26745;DHT22;14342;50.960;13.880;2022-07-30T05:28:50;19.70;99.90
26745;DHT22;14342;50.960;13.880;2022-07-30T05:29:51;19.70;99.90
26745;DHT22;14342;50.960;13.880;2022-07-30T05:30:53;19.50;99.90
26745;DHT22;14342;50.960;13.880;2022-07-30T05:31:54;19.50;99.90
26745;DHT22;14342;50.960;13.880;2022-07-30T05:32:55;19.40;99.90
26745;DHT22;14342;50.960;13.880;2022-07-30T05:33:56;19.40;99.90
26745;DHT22;14342;50.960;13.880;2022-07-30T05:34:59;19.50;99.90
26745;DHT22;14342;50.960;13.880;2022-07-30T05:35:59;19.50;99.90
26745;DHT22;14342;50.960;13.880;2022-07-30T05:37:01;19.40;99.90
26745;DHT22;14342;50.960;13.880;2022-07-30T05:38:01;19.30;99.90
26745;DHT22;14342;50.960;13.880;2022-07-30T05:39:03;19.40;99.90
26745;DHT22;14342;50.960;13.880;2022-07-30T05:40:04;19.40;99.90
26745;DHT22;14342;50.960;13.880;2022-07-30T05:41:06;19.30;99.90
26745;DHT22;14342;50.960;13.880;2022-07-30T05:42:06;19.20;99.90
26745;DHT22;14342;50.960;13.880;2022-07-30T05:43:08;19.20;99.90
26745;DHT22;14342;50.960;13.880;2022-07-30T05:44:08;19.20;99.90
26745;DHT22;14342;50.960;13.880;2022-07-30T05:45:10;19.20;99.90
26745;DHT22;14342;50.960;13.880;2022-07-30T05:46:10;19.20;99.90
26745;DHT22;14342;50.960;13.880;2022-07-30T05:47:12;19.20;99.90
26745;DHT22;14342;50.960;13.880;2022-07-30T05:48:13;19.20;99.90
26745;DHT22;14342;50.960;13.880;2022-07-30T05:49:14;19.30;99.90
26745;DHT22;14342;50.960;13.880;2022-07-30T05:50:16;19.40;99.90
26745;DHT22;14342;50.960;13.880;2022-07-30T05:51:17;19.40;99.90
26745;DHT22;14342;50.960;13.880;2022-07-30T05:52:20;19.40;99.90
26745;DHT22;14342;50.960;13.880;2022-07-30T05:53:21;19.40;99.90
26745;DHT22;14342;50.960;13.880;2022-07-30T05:54:22;19.50;99.90
26745;DHT22;14342;50.960;13.880;2022-07-30T05:55:23;19.50;99.90
26745;DHT22;14342;50.960;13.880;2022-07-30T05:56:24;19.50;99.90
26745;DHT22;14342;50.960;13.880;2022-07-30T05:57:25;19.40;99.90
26745;DHT22;14342;50.960;13.880;2022-07-30T05:58:26;19.40;99.90
26745;DHT22;14342;50.960;13.880;2022-07-30T05:59:28;19.40;99.90
26745;DHT22;14342;50.960;13.880;2022-07-30T06:00:28;19.30;99.90
26745;DHT22;14342;50.960;13.880;2022-07-30T06:01:30;19.30;99.90
26745;DHT22;14342;50.960;13.880;2022-07-30T06:02:30;19.30;99.90
26745;DHT22;14342;50.960;13.880;2022-07-30T06:03:32;19.20;99.90
26745;DHT22;14342;50.960;13.880;2022-07-30T06:04:33;19.20;99.90
26745;DHT22;14342;50.960;13.880;2022-07-30T06:05:36;18.90;99.90
26745;DHT22;14342;50.960;13.880;2022-07-30T06:06:37;18.80;99.90
26745;DHT22;14342;50.960;13.880;2022-07-30T06:07:38;18.80;99.90
26745;DHT22;14342;50.960;13.880;2022-07-30T06:08:39;18.80;99.90
26745;DHT22;14342;50.960;13.880;2022-07-30T06:09:41;18.70;99.90
26745;DHT22;14342;50.960;13.880;2022-07-30T06:10:41;18.70;99.90
26745;DHT22;14342;50.960;13.880;2022-07-30T06:11:43;18.70;99.90
26745;DHT22;14342;50.960;13.880;2022-07-30T06:12:43;18.70;99.90
26745;DHT22;14342;50.960;13.880;2022-07-30T06:13:45;18.80;99.90
26745;DHT22;14342;50.960;13.880;2022-07-30T06:14:45;18.80;99.90
26745;DHT22;14342;50.960;13.880;2022-07-30T06:15:47;18.80;99.90
26745;DHT22;14342;50.960;13.880;2022-07-30T06:16:48;18.70;99.90
26745;DHT22;14342;50.960;13.880;2022-07-30T06:17:49;18.70;99.90
26745;DHT22;14342;50.960;13.880;2022-07-30T06:18:51;18.60;99.90
26745;DHT22;14342;50.960;13.880;2022-07-30T06:19:51;18.60;99.90
26745;DHT22;14342;50.960;13.880;2022-07-30T06:20:54;18.60;99.90
26745;DHT22;14342;50.960;13.880;2022-07-30T06:21:56;18.60;99.90
26745;DHT22;14342;50.960;13.880;2022-07-30T06:22:56;18.60;99.90
26745;DHT22;14342;50.960;13.880;2022-07-30T06:23:58;18.60;99.90
26745;DHT22;14342;50.960;13.880;2022-07-30T06:24:59;18.70;99.90
26745;DHT22;14342;50.960;13.880;2022-07-30T06:26:01;18.60;99.90